sensor_id;sensor_type;location;lat;lon;timestamp;P1;P2;P0
72307;PMS5003;60257;42.638;23.376;2022-11-15T00:00:25;82.75;64.75;38.00
72307;PMS5003;60257;42.638;23.376;2022-11-15T00:02:54;86.00;69.50;42.25
72307;PMS5003;60257;42.638;23.376;2022-11-15T00:05:19;85.50;69.00;43.50
72307;PMS5003;60257;42.638;23.376;2022-11-15T00:07:45;85.75;67.25;42.25
72307;PMS5003;60257;42.638;23.376;2022-11-15T00:10:10;90.75;69.00;42.25
72307;PMS5003;60257;42.638;23.376;2022-11-15T00:12:36;89.25;71.00;44.00
72307;PMS5003;60257;42.638;23.376;2022-11-15T00:15:01;81.75;62.75;37.00
72307;PMS5003;60257;42.638;23.376;2022-11-15T00:17:27;88.25;68.75;44.00
72307;PMS5003;60257;42.638;23.376;2022-11-15T00:19:52;94.50;74.00;47.50
72307;PMS5003;60257;42.638;23.376;2022-11-15T00:22:18;94.75;72.75;46.00
72307;PMS5003;60257;42.638;23.376;2022-11-15T00:24:44;96.75;76.75;47.25
72307;PMS5003;60257;42.638;23.376;2022-11-15T00:27:09;103.00;84.50;50.00
72307;PMS5003;60257;42.638;23.376;2022-11-15T00:29:34;92.75;74.75;46.00
72307;PMS5003;60257;42.638;23.376;2022-11-15T00:32:02;88.00;70.25;42.25
72307;PMS5003;60257;42.638;23.376;2022-11-15T00:34:27;94.25;73.75;45.25
72307;PMS5003;60257;42.638;23.376;2022-11-15T00:36:53;91.25;70.75;43.25
72307;PMS5003;60257;42.638;23.376;2022-11-15T00:39:18;90.75;71.25;47.00
72307;PMS5003;60257;42.638;23.376;2022-11-15T00:41:44;96.00;75.00;45.50
72307;PMS5003;60257;42.638;23.376;2022-11-15T00:44:09;88.50;68.75;43.50
72307;PMS5003;60257;42.638;23.376;2022-11-15T00:46:35;91.25;72.00;45.00
72307;PMS5003;60257;42.638;23.376;2022-11-15T00:49:00;88.25;68.50;42.25
72307;PMS5003;60257;42.638;23.376;2022-11-15T00:51:25;99.00;76.00;47.25
72307;PMS5003;60257;42.638;23.376;2022-11-15T00:53:51;87.75;68.75;43.00
72307;PMS5003;60257;42.638;23.376;2022-11-15T00:56:16;97.00;75.75;46.75
72307;PMS5003;60257;42.638;23.376;2022-11-15T00:58:42;96.25;72.50;45.00
72307;PMS5003;60257;42.638;23.376;2022-11-15T01:01:08;95.75;73.25;44.25
72307;PMS5003;60257;42.638;23.376;2022-11-15T01:03:36;90.75;68.25;43.00
72307;PMS5003;60257;42.638;23.376;2022-11-15T01:06:03;87.00;69.50;44.50
72307;PMS5003;60257;42.638;23.376;2022-11-15T01:08:29;91.25;71.50;43.75
72307;PMS5003;60257;42.638;23.376;2022-11-15T01:10:54;82.75;66.00;42.00
72307;PMS5003;60257;42.638;23.376;2022-11-15T01:13:19;85.50;66.50;41.25
72307;PMS5003;60257;42.638;23.376;2022-11-15T01:15:45;88.50;68.75;42.75
72307;PMS5003;60257;42.638;23.376;2022-11-15T01:18:10;85.75;66.00;40.25
72307;PMS5003;60257;42.638;23.376;2022-11-15T01:20:42;88.25;68.00;43.50
72307;PMS5003;60257;42.638;23.376;2022-11-15T01:23:08;90.75;69.50;42.25
72307;PMS5003;60257;42.638;23.376;2022-11-15T01:25:34;85.25;66.50;42.25
72307;PMS5003;60257;42.638;23.376;2022-11-15T01:27:59;92.50;72.75;44.25
72307;PMS5003;60257;42.638;23.376;2022-11-15T01:30:25;84.00;65.75;40.00
72307;PMS5003;60257;42.638;23.376;2022-11-15T01:32:50;90.00;71.25;44.00
72307;PMS5003;60257;42.638;23.376;2022-11-15T01:35:16;93.75;74.25;46.00
72307;PMS5003;60257;42.638;23.376;2022-11-15T01:37:41;94.75;72.00;41.25
72307;PMS5003;60257;42.638;23.376;2022-11-15T01:40:07;97.00;76.50;47.00
72307;PMS5003;60257;42.638;23.376;2022-11-15T01:42:33;90.75;69.75;44.25
72307;PMS5003;60257;42.638;23.376;2022-11-15T01:44:58;96.00;72.25;45.00
72307;PMS5003;60257;42.638;23.376;2022-11-15T01:47:31;100.75;78.75;46.00
72307;PMS5003;60257;42.638;23.376;2022-11-15T01:52:31;85.25;67.75;43.00
72307;PMS5003;60257;42.638;23.376;2022-11-15T01:57:38;91.00;71.50;45.25
72307;PMS5003;60257;42.638;23.376;2022-11-15T02:00:07;90.75;72.50;45.75
72307;PMS5003;60257;42.638;23.376;2022-11-15T02:02:33;88.75;71.25;44.75
72307;PMS5003;60257;42.638;23.376;2022-11-15T02:05:01;101.50;80.75;47.25
72307;PMS5003;60257;42.638;23.376;2022-11-15T02:07:26;102.00;78.25;47.25
72307;PMS5003;60257;42.638;23.376;2022-11-15T02:09:53;104.75;86.25;50.50
72307;PMS5003;60257;42.638;23.376;2022-11-15T02:12:20;102.00;85.50;51.00
72307;PMS5003;60257;42.638;23.376;2022-11-15T02:14:49;97.25;78.50;48.25
72307;PMS5003;60257;42.638;23.376;2022-11-15T02:17:22;94.75;74.75;47.75
72307;PMS5003;60257;42.638;23.376;2022-11-15T02:37:07;106.00;87.00;48.75
72307;PMS5003;60257;42.638;23.376;2022-11-15T02:42:21;99.00;85.25;51.75
72307;PMS5003;60257;42.638;23.376;2022-11-15T02:45:11;102.50;82.25;46.25
72307;PMS5003;60257;42.638;23.376;2022-11-15T02:47:42;97.25;74.00;43.00
72307;PMS5003;60257;42.638;23.376;2022-11-15T02:50:12;101.75;84.75;48.25
72307;PMS5003;60257;42.638;23.376;2022-11-15T02:52:40;98.00;76.25;46.75
72307;PMS5003;60257;42.638;23.376;2022-11-15T03:00:26;94.00;71.00;43.25
72307;PMS5003;60257;42.638;23.376;2022-11-15T03:06:15;85.00;66.00;41.25
72307;PMS5003;60257;42.638;23.376;2022-11-15T03:08:40;89.50;73.75;43.50
72307;PMS5003;60257;42.638;23.376;2022-11-15T03:11:19;86.25;68.75;42.75
72307;PMS5003;60257;42.638;23.376;2022-11-15T03:16:18;87.50;68.25;43.75
72307;PMS5003;60257;42.638;23.376;2022-11-15T03:18:50;83.75;67.25;40.75
72307;PMS5003;60257;42.638;23.376;2022-11-15T03:21:20;84.50;66.50;40.75
72307;PMS5003;60257;42.638;23.376;2022-11-15T03:23:48;71.25;58.25;33.00
72307;PMS5003;60257;42.638;23.376;2022-11-15T03:26:16;74.25;61.00;38.25
72307;PMS5003;60257;42.638;23.376;2022-11-15T03:28:50;68.75;54.50;33.75
72307;PMS5003;60257;42.638;23.376;2022-11-15T03:31:24;72.75;57.25;36.00
72307;PMS5003;60257;42.638;23.376;2022-11-15T03:34:15;63.25;52.00;33.00
72307;PMS5003;60257;42.638;23.376;2022-11-15T03:36:54;62.25;48.50;30.25
72307;PMS5003;60257;42.638;23.376;2022-11-15T03:39:20;57.25;47.25;30.00
72307;PMS5003;60257;42.638;23.376;2022-11-15T03:45:02;63.75;52.25;30.25
72307;PMS5003;60257;42.638;23.376;2022-11-15T03:50:39;52.25;44.75;24.25
72307;PMS5003;60257;42.638;23.376;2022-11-15T03:53:06;49.00;43.00;27.25
72307;PMS5003;60257;42.638;23.376;2022-11-15T03:55:32;44.75;42.75;27.00
72307;PMS5003;60257;42.638;23.376;2022-11-15T03:57:59;35.50;33.50;18.50
72307;PMS5003;60257;42.638;23.376;2022-11-15T04:00:25;45.00;40.25;23.00
72307;PMS5003;60257;42.638;23.376;2022-11-15T04:02:51;53.50;44.25;27.00
72307;PMS5003;60257;42.638;23.376;2022-11-15T04:05:17;66.50;53.50;32.00
72307;PMS5003;60257;42.638;23.376;2022-11-15T04:07:42;73.75;59.25;36.00
72307;PMS5003;60257;42.638;23.376;2022-11-15T04:10:08;84.75;68.00;43.25
72307;PMS5003;60257;42.638;23.376;2022-11-15T04:12:37;86.00;67.75;42.50
72307;PMS5003;60257;42.638;23.376;2022-11-15T04:15:15;100.50;80.50;48.00
72307;PMS5003;60257;42.638;23.376;2022-11-15T04:17:44;103.75;87.50;49.25
72307;PMS5003;60257;42.638;23.376;2022-11-15T04:20:16;101.00;85.00;48.75
72307;PMS5003;60257;42.638;23.376;2022-11-15T04:25:55;95.50;72.50;48.25
72307;PMS5003;60257;42.638;23.376;2022-11-15T04:28:23;93.75;73.00;41.75
72307;PMS5003;60257;42.638;23.376;2022-11-15T04:30:48;91.25;71.75;43.50
72307;PMS5003;60257;42.638;23.376;2022-11-15T04:33:14;85.00;67.50;45.25
72307;PMS5003;60257;42.638;23.376;2022-11-15T04:35:40;93.50;72.00;45.75
72307;PMS5003;60257;42.638;23.376;2022-11-15T04:38:07;94.25;73.25;46.25
72307;PMS5003;60257;42.638;23.376;2022-11-15T04:40:34;92.50;72.25;44.50
72307;PMS5003;60257;42.638;23.376;2022-11-15T04:43:01;90.75;71.75;47.25
72307;PMS5003;60257;42.638;23.376;2022-11-15T04:45:26;96.75;75.75;46.00
72307;PMS5003;60257;42.638;23.376;2022-11-15T04:47:52;89.00;70.00;41.00
72307;PMS5003;60257;42.638;23.376;2022-11-15T04:50:17;88.25;70.00;43.50
72307;PMS5003;60257;42.638;23.376;2022-11-15T04:52:49;92.75;71.00;43.25
72307;PMS5003;60257;42.638;23.376;2022-11-15T04:55:16;92.50;70.75;43.25
72307;PMS5003;60257;42.638;23.376;2022-11-15T04:57:42;95.75;72.75;44.75
72307;PMS5003;60257;42.638;23.376;2022-11-15T05:00:09;92.25;70.50;42.25
72307;PMS5003;60257;42.638;23.376;2022-11-15T05:02:37;87.75;67.75;41.00
72307;PMS5003;60257;42.638;23.376;2022-11-15T05:05:21;95.75;69.25;41.25
72307;PMS5003;60257;42.638;23.376;2022-11-15T05:07:47;92.50;70.00;43.00
72307;PMS5003;60257;42.638;23.376;2022-11-15T05:10:12;98.50;74.00;45.00
72307;PMS5003;60257;42.638;23.376;2022-11-15T05:12:38;86.50;66.50;42.00
72307;PMS5003;60257;42.638;23.376;2022-11-15T05:15:03;88.25;71.75;45.00
72307;PMS5003;60257;42.638;23.376;2022-11-15T05:17:29;99.50;79.25;47.00
72307;PMS5003;60257;42.638;23.376;2022-11-15T05:19:54;84.75;67.50;42.00
72307;PMS5003;60257;42.638;23.376;2022-11-15T05:22:20;88.50;68.00;43.25
72307;PMS5003;60257;42.638;23.376;2022-11-15T05:24:46;95.25;72.75;46.00
72307;PMS5003;60257;42.638;23.376;2022-11-15T05:27:11;87.50;69.75;45.25
72307;PMS5003;60257;42.638;23.376;2022-11-15T05:29:36;86.25;65.00;41.75
72307;PMS5003;60257;42.638;23.376;2022-11-15T05:32:03;99.50;74.50;45.50
72307;PMS5003;60257;42.638;23.376;2022-11-15T05:34:30;87.75;69.75;41.00
72307;PMS5003;60257;42.638;23.376;2022-11-15T05:36:56;87.25;64.25;43.25
72307;PMS5003;60257;42.638;23.376;2022-11-15T05:39:21;90.00;68.00;41.00
72307;PMS5003;60257;42.638;23.376;2022-11-15T05:41:48;74.75;58.75;36.25
72307;PMS5003;60257;42.638;23.376;2022-11-15T05:44:19;76.75;59.50;37.00
72307;PMS5003;60257;42.638;23.376;2022-11-15T05:46:47;76.50;61.50;36.75
72307;PMS5003;60257;42.638;23.376;2022-11-15T05:49:15;72.00;55.00;34.25
72307;PMS5003;60257;42.638;23.376;2022-11-15T05:51:44;71.25;56.75;33.00
72307;PMS5003;60257;42.638;23.376;2022-11-15T05:54:13;66.25;51.25;31.00
72307;PMS5003;60257;42.638;23.376;2022-11-15T05:56:40;63.50;50.25;30.00
72307;PMS5003;60257;42.638;23.376;2022-11-15T05:59:05;64.25;52.00;31.00
72307;PMS5003;60257;42.638;23.376;2022-11-15T06:01:33;71.25;57.50;36.00
72307;PMS5003;60257;42.638;23.376;2022-11-15T06:03:59;77.00;60.00;36.25
72307;PMS5003;60257;42.638;23.376;2022-11-15T06:06:24;89.50;67.75;41.00
72307;PMS5003;60257;42.638;23.376;2022-11-15T06:08:50;84.00;62.75;38.25
72307;PMS5003;60257;42.638;23.376;2022-11-15T06:11:15;92.25;70.00;44.00
72307;PMS5003;60257;42.638;23.376;2022-11-15T06:13:40;92.75;70.50;44.00
72307;PMS5003;60257;42.638;23.376;2022-11-15T06:16:06;77.25;61.50;38.00
72307;PMS5003;60257;42.638;23.376;2022-11-15T06:18:32;76.75;60.25;31.00
72307;PMS5003;60257;42.638;23.376;2022-11-15T06:20:59;89.50;68.25;42.00
72307;PMS5003;60257;42.638;23.376;2022-11-15T06:23:25;81.75;63.00;36.25
72307;PMS5003;60257;42.638;23.376;2022-11-15T06:25:50;101.00;82.50;45.25
72307;PMS5003;60257;42.638;23.376;2022-11-15T06:28:16;85.75;63.00;43.25
72307;PMS5003;60257;42.638;23.376;2022-11-15T06:30:41;85.50;64.25;35.50
72307;PMS5003;60257;42.638;23.376;2022-11-15T06:33:07;74.75;58.75;38.00
72307;PMS5003;60257;42.638;23.376;2022-11-15T06:35:34;96.25;70.75;43.75
72307;PMS5003;60257;42.638;23.376;2022-11-15T06:38:04;84.50;69.00;39.75
72307;PMS5003;60257;42.638;23.376;2022-11-15T06:40:33;91.75;72.75;43.25
72307;PMS5003;60257;42.638;23.376;2022-11-15T06:42:59;80.75;64.75;40.75
72307;PMS5003;60257;42.638;23.376;2022-11-15T06:45:25;88.50;68.00;39.50
72307;PMS5003;60257;42.638;23.376;2022-11-15T06:47:51;84.50;65.25;40.50
72307;PMS5003;60257;42.638;23.376;2022-11-15T06:50:16;80.00;60.00;38.00
72307;PMS5003;60257;42.638;23.376;2022-11-15T06:52:42;85.50;65.50;40.75
72307;PMS5003;60257;42.638;23.376;2022-11-15T06:55:08;93.75;71.25;43.00
72307;PMS5003;60257;42.638;23.376;2022-11-15T06:57:34;108.75;93.00;52.50
72307;PMS5003;60257;42.638;23.376;2022-11-15T06:59:59;132.25;112.25;60.00
72307;PMS5003;60257;42.638;23.376;2022-11-15T07:02:25;102.00;78.00;45.00
72307;PMS5003;60257;42.638;23.376;2022-11-15T07:04:51;67.75;52.00;18.50
72307;PMS5003;60257;42.638;23.376;2022-11-15T07:07:16;103.50;89.75;51.50
72307;PMS5003;60257;42.638;23.376;2022-11-15T07:09:41;82.75;63.00;36.25
72307;PMS5003;60257;42.638;23.376;2022-11-15T07:12:07;101.00;83.50;47.50
72307;PMS5003;60257;42.638;23.376;2022-11-15T07:14:32;94.50;72.50;45.00
72307;PMS5003;60257;42.638;23.376;2022-11-15T07:16:58;99.50;80.25;45.00
72307;PMS5003;60257;42.638;23.376;2022-11-15T07:19:23;96.75;80.25;45.00
72307;PMS5003;60257;42.638;23.376;2022-11-15T07:21:49;96.75;72.75;43.25
72307;PMS5003;60257;42.638;23.376;2022-11-15T07:24:14;81.50;65.25;39.75
72307;PMS5003;60257;42.638;23.376;2022-11-15T07:26:40;82.00;62.25;38.00
72307;PMS5003;60257;42.638;23.376;2022-11-15T07:29:05;62.00;47.50;31.00
72307;PMS5003;60257;42.638;23.376;2022-11-15T07:31:30;78.50;62.75;39.00
72307;PMS5003;60257;42.638;23.376;2022-11-15T07:33:56;66.75;53.75;30.75
72307;PMS5003;60257;42.638;23.376;2022-11-15T07:36:21;74.50;58.00;35.00
72307;PMS5003;60257;42.638;23.376;2022-11-15T07:38:47;75.25;58.25;33.25
72307;PMS5003;60257;42.638;23.376;2022-11-15T07:41:12;72.75;58.00;35.25
72307;PMS5003;60257;42.638;23.376;2022-11-15T07:43:38;68.00;54.00;30.00
72307;PMS5003;60257;42.638;23.376;2022-11-15T07:46:04;64.75;54.50;33.25
72307;PMS5003;60257;42.638;23.376;2022-11-15T07:48:34;68.00;53.25;35.00
72307;PMS5003;60257;42.638;23.376;2022-11-15T07:51:04;81.25;63.25;38.00
72307;PMS5003;60257;42.638;23.376;2022-11-15T07:53:30;100.00;84.75;48.00
72307;PMS5003;60257;42.638;23.376;2022-11-15T07:55:56;95.25;78.25;47.25
72307;PMS5003;60257;42.638;23.376;2022-11-15T07:58:21;97.50;80.50;44.75
72307;PMS5003;60257;42.638;23.376;2022-11-15T08:00:47;103.50;87.00;50.25
72307;PMS5003;60257;42.638;23.376;2022-11-15T08:03:13;95.50;77.25;44.00
72307;PMS5003;60257;42.638;23.376;2022-11-15T08:05:40;94.50;75.00;41.75
72307;PMS5003;60257;42.638;23.376;2022-11-15T08:08:08;99.25;78.50;44.50
72307;PMS5003;60257;42.638;23.376;2022-11-15T08:10:37;96.75;76.25;43.75
72307;PMS5003;60257;42.638;23.376;2022-11-15T08:15:32;100.75;86.50;45.25
72307;PMS5003;60257;42.638;23.376;2022-11-15T08:17:59;83.00;66.75;44.00
72307;PMS5003;60257;42.638;23.376;2022-11-15T08:20:27;88.75;73.50;43.25
72307;PMS5003;60257;42.638;23.376;2022-11-15T08:22:56;91.25;73.00;44.00
72307;PMS5003;60257;42.638;23.376;2022-11-15T08:25:26;85.75;68.25;37.75
72307;PMS5003;60257;42.638;23.376;2022-11-15T08:27:54;94.75;76.00;43.25
72307;PMS5003;60257;42.638;23.376;2022-11-15T08:30:21;94.00;72.25;42.25
72307;PMS5003;60257;42.638;23.376;2022-11-15T08:32:47;89.25;70.25;41.25
72307;PMS5003;60257;42.638;23.376;2022-11-15T08:35:17;75.75;56.25;34.00
72307;PMS5003;60257;42.638;23.376;2022-11-15T08:37:43;99.25;77.50;43.00
72307;PMS5003;60257;42.638;23.376;2022-11-15T08:40:09;88.75;67.00;38.50
72307;PMS5003;60257;42.638;23.376;2022-11-15T08:42:34;92.25;70.00;42.00
72307;PMS5003;60257;42.638;23.376;2022-11-15T08:45:00;83.00;63.50;39.25
72307;PMS5003;60257;42.638;23.376;2022-11-15T08:47:25;81.25;62.00;40.75
72307;PMS5003;60257;42.638;23.376;2022-11-15T08:49:51;92.50;76.00;42.75
72307;PMS5003;60257;42.638;23.376;2022-11-15T08:52:17;88.00;70.75;42.00
72307;PMS5003;60257;42.638;23.376;2022-11-15T08:54:42;93.00;69.50;38.25
72307;PMS5003;60257;42.638;23.376;2022-11-15T08:57:08;92.50;73.50;41.50
72307;PMS5003;60257;42.638;23.376;2022-11-15T08:59:34;98.25;79.00;44.50
72307;PMS5003;60257;42.638;23.376;2022-11-15T09:02:00;92.25;69.50;40.25
72307;PMS5003;60257;42.638;23.376;2022-11-15T09:04:26;116.25;100.75;50.50
72307;PMS5003;60257;42.638;23.376;2022-11-15T09:06:52;96.25;81.25;45.75
72307;PMS5003;60257;42.638;23.376;2022-11-15T09:09:18;93.25;74.50;41.50
72307;PMS5003;60257;42.638;23.376;2022-11-15T09:11:43;99.50;76.25;42.25
72307;PMS5003;60257;42.638;23.376;2022-11-15T09:14:10;100.50;83.00;45.25
72307;PMS5003;60257;42.638;23.376;2022-11-15T09:16:39;97.25;72.75;43.00
72307;PMS5003;60257;42.638;23.376;2022-11-15T09:19:05;98.50;83.50;46.25
72307;PMS5003;60257;42.638;23.376;2022-11-15T09:21:30;92.75;74.25;41.25
72307;PMS5003;60257;42.638;23.376;2022-11-15T09:23:56;91.50;71.25;41.00
72307;PMS5003;60257;42.638;23.376;2022-11-15T09:26:22;87.25;68.25;36.75
72307;PMS5003;60257;42.638;23.376;2022-11-15T09:28:48;93.75;73.00;42.00
72307;PMS5003;60257;42.638;23.376;2022-11-15T09:31:13;91.50;76.25;42.75
72307;PMS5003;60257;42.638;23.376;2022-11-15T09:33:39;91.00;68.25;43.75
72307;PMS5003;60257;42.638;23.376;2022-11-15T09:36:06;94.00;80.00;44.50
72307;PMS5003;60257;42.638;23.376;2022-11-15T09:38:33;91.00;69.50;40.50
72307;PMS5003;60257;42.638;23.376;2022-11-15T09:41:13;92.75;72.75;41.25
72307;PMS5003;60257;42.638;23.376;2022-11-15T09:49:02;108.75;91.00;53.50
72307;PMS5003;60257;42.638;23.376;2022-11-15T09:51:33;99.50;86.00;45.00
72307;PMS5003;60257;42.638;23.376;2022-11-15T09:56:34;93.50;73.50;40.50
72307;PMS5003;60257;42.638;23.376;2022-11-15T10:04:38;89.25;67.75;37.00
72307;PMS5003;60257;42.638;23.376;2022-11-15T10:10:03;94.75;75.25;41.50
72307;PMS5003;60257;42.638;23.376;2022-11-15T10:12:46;92.25;70.75;38.50
72307;PMS5003;60257;42.638;23.376;2022-11-15T10:15:16;91.75;74.25;44.25
72307;PMS5003;60257;42.638;23.376;2022-11-15T10:20:42;95.50;76.75;43.25
72307;PMS5003;60257;42.638;23.376;2022-11-15T10:23:13;86.00;64.50;42.00
72307;PMS5003;60257;42.638;23.376;2022-11-15T10:25:41;86.25;70.75;42.25
72307;PMS5003;60257;42.638;23.376;2022-11-15T10:28:13;94.00;76.75;42.00
72307;PMS5003;60257;42.638;23.376;2022-11-15T10:30:40;94.75;84.00;45.00
72307;PMS5003;60257;42.638;23.376;2022-11-15T10:36:16;92.25;76.00;45.00
72307;PMS5003;60257;42.638;23.376;2022-11-15T10:41:14;92.75;80.00;43.75
72307;PMS5003;60257;42.638;23.376;2022-11-15T10:43:43;91.25;78.25;43.00
72307;PMS5003;60257;42.638;23.376;2022-11-15T10:46:20;91.75;78.00;42.50
72307;PMS5003;60257;42.638;23.376;2022-11-15T10:48:48;85.25;64.50;39.50
72307;PMS5003;60257;42.638;23.376;2022-11-15T10:51:27;84.75;70.00;39.25
72307;PMS5003;60257;42.638;23.376;2022-11-15T10:53:58;87.25;66.50;39.25
72307;PMS5003;60257;42.638;23.376;2022-11-15T10:56:26;85.75;65.00;38.25
72307;PMS5003;60257;42.638;23.376;2022-11-15T10:58:55;81.75;63.75;38.00
72307;PMS5003;60257;42.638;23.376;2022-11-15T11:01:22;77.50;61.25;38.00
72307;PMS5003;60257;42.638;23.376;2022-11-15T11:04:02;84.25;66.00;39.25
72307;PMS5003;60257;42.638;23.376;2022-11-15T11:06:30;84.00;68.00;42.00
72307;PMS5003;60257;42.638;23.376;2022-11-15T11:08:58;82.25;64.50;40.00
72307;PMS5003;60257;42.638;23.376;2022-11-15T11:16:52;77.50;58.75;34.00
72307;PMS5003;60257;42.638;23.376;2022-11-15T11:33:38;89.00;73.25;42.75
72307;PMS5003;60257;42.638;23.376;2022-11-15T11:36:27;91.00;76.25;41.00
72307;PMS5003;60257;42.638;23.376;2022-11-15T11:50:29;78.75;61.00;38.25
72307;PMS5003;60257;42.638;23.376;2022-11-15T11:52:57;89.50;76.50;41.25
72307;PMS5003;60257;42.638;23.376;2022-11-15T11:55:32;82.75;63.75;38.00
72307;PMS5003;60257;42.638;23.376;2022-11-15T11:58:05;80.50;63.00;39.25
72307;PMS5003;60257;42.638;23.376;2022-11-15T12:01:32;78.75;63.00;39.25
72307;PMS5003;60257;42.638;23.376;2022-11-15T12:12:19;81.50;63.25;33.75
72307;PMS5003;60257;42.638;23.376;2022-11-15T12:17:34;67.25;55.50;27.00
72307;PMS5003;60257;42.638;23.376;2022-11-15T12:20:03;81.25;63.50;38.00
72307;PMS5003;60257;42.638;23.376;2022-11-15T12:22:43;74.25;57.00;33.75
72307;PMS5003;60257;42.638;23.376;2022-11-15T12:25:20;83.00;65.00;38.00
72307;PMS5003;60257;42.638;23.376;2022-11-15T12:27:57;65.25;54.25;32.25
72307;PMS5003;60257;42.638;23.376;2022-11-15T12:30:53;84.00;66.00;39.75
72307;PMS5003;60257;42.638;23.376;2022-11-15T12:36:29;81.25;63.75;37.00
72307;PMS5003;60257;42.638;23.376;2022-11-15T12:38:56;83.50;66.25;40.00
72307;PMS5003;60257;42.638;23.376;2022-11-15T12:44:03;72.50;58.50;35.25
72307;PMS5003;60257;42.638;23.376;2022-11-15T12:49:10;86.00;70.25;40.00
72307;PMS5003;60257;42.638;23.376;2022-11-15T13:02:41;82.00;63.25;38.50
72307;PMS5003;60257;42.638;23.376;2022-11-15T13:12:56;73.50;59.75;38.50
72307;PMS5003;60257;42.638;23.376;2022-11-15T13:18:24;80.25;64.00;40.25
72307;PMS5003;60257;42.638;23.376;2022-11-15T13:20:53;84.50;69.75;39.50
72307;PMS5003;60257;42.638;23.376;2022-11-15T13:23:18;86.00;73.75;42.00
72307;PMS5003;60257;42.638;23.376;2022-11-15T13:28:52;85.00;68.75;40.00
72307;PMS5003;60257;42.638;23.376;2022-11-15T13:34:00;89.00;69.00;40.25
72307;PMS5003;60257;42.638;23.376;2022-11-15T13:36:32;80.00;62.00;39.25
72307;PMS5003;60257;42.638;23.376;2022-11-15T13:39:03;83.75;65.00;39.50
72307;PMS5003;60257;42.638;23.376;2022-11-15T13:41:32;88.50;67.50;40.00
72307;PMS5003;60257;42.638;23.376;2022-11-15T13:44:00;84.25;67.50;39.25
72307;PMS5003;60257;42.638;23.376;2022-11-15T13:46:27;80.50;63.50;37.00
72307;PMS5003;60257;42.638;23.376;2022-11-15T13:48:55;86.00;67.25;40.25
72307;PMS5003;60257;42.638;23.376;2022-11-15T13:56:37;85.75;71.00;41.25
72307;PMS5003;60257;42.638;23.376;2022-11-15T13:59:10;86.50;70.50;40.75
72307;PMS5003;60257;42.638;23.376;2022-11-15T14:01:51;82.50;65.25;39.50
72307;PMS5003;60257;42.638;23.376;2022-11-15T14:04:18;78.50;63.00;41.25
72307;PMS5003;60257;42.638;23.376;2022-11-15T14:06:48;85.75;70.50;40.50
72307;PMS5003;60257;42.638;23.376;2022-11-15T14:09:31;84.00;63.75;39.25
72307;PMS5003;60257;42.638;23.376;2022-11-15T14:11:59;85.00;69.25;39.25
72307;PMS5003;60257;42.638;23.376;2022-11-15T14:14:26;89.75;72.50;41.75
72307;PMS5003;60257;42.638;23.376;2022-11-15T14:16:57;85.75;64.00;39.00
72307;PMS5003;60257;42.638;23.376;2022-11-15T14:25:03;88.00;71.75;40.00
72307;PMS5003;60257;42.638;23.376;2022-11-15T14:27:41;83.00;66.50;36.25
72307;PMS5003;60257;42.638;23.376;2022-11-15T14:30:17;91.50;77.25;41.00
72307;PMS5003;60257;42.638;23.376;2022-11-15T14:32:44;88.50;72.25;41.00
72307;PMS5003;60257;42.638;23.376;2022-11-15T14:35:17;91.50;75.50;43.00
72307;PMS5003;60257;42.638;23.376;2022-11-15T14:37:45;85.50;68.75;41.25
72307;PMS5003;60257;42.638;23.376;2022-11-15T14:40:20;86.75;71.25;42.00
72307;PMS5003;60257;42.638;23.376;2022-11-15T14:42:47;79.50;59.50;33.00
72307;PMS5003;60257;42.638;23.376;2022-11-15T14:45:22;88.25;74.50;42.00
72307;PMS5003;60257;42.638;23.376;2022-11-15T14:47:48;94.25;78.75;43.00
72307;PMS5003;60257;42.638;23.376;2022-11-15T14:50:17;89.75;74.50;41.00
72307;PMS5003;60257;42.638;23.376;2022-11-15T14:52:44;92.50;79.75;45.00
72307;PMS5003;60257;42.638;23.376;2022-11-15T14:55:17;90.50;75.25;41.00
72307;PMS5003;60257;42.638;23.376;2022-11-15T14:57:46;91.00;78.25;44.50
72307;PMS5003;60257;42.638;23.376;2022-11-15T15:00:11;90.25;70.75;39.75
72307;PMS5003;60257;42.638;23.376;2022-11-15T15:02:37;92.00;78.50;42.75
72307;PMS5003;60257;42.638;23.376;2022-11-15T15:05:23;94.75;79.00;42.00
72307;PMS5003;60257;42.638;23.376;2022-11-15T15:07:56;95.25;84.25;48.75
72307;PMS5003;60257;42.638;23.376;2022-11-15T15:10:22;95.00;83.00;42.25
72307;PMS5003;60257;42.638;23.376;2022-11-15T15:12:48;101.25;84.00;45.75
72307;PMS5003;60257;42.638;23.376;2022-11-15T15:15:14;101.75;94.25;52.50
72307;PMS5003;60257;42.638;23.376;2022-11-15T15:17:46;109.00;96.00;52.00
72307;PMS5003;60257;42.638;23.376;2022-11-15T15:20:12;103.75;91.00;51.50
72307;PMS5003;60257;42.638;23.376;2022-11-15T15:22:37;98.00;90.50;48.00
72307;PMS5003;60257;42.638;23.376;2022-11-15T15:25:09;117.50;107.50;60.75
72307;PMS5003;60257;42.638;23.376;2022-11-15T15:27:44;96.75;88.00;47.75
72307;PMS5003;60257;42.638;23.376;2022-11-15T15:30:09;101.25;94.25;57.25
72307;PMS5003;60257;42.638;23.376;2022-11-15T15:32:35;99.00;94.75;53.25
72307;PMS5003;60257;42.638;23.376;2022-11-15T15:35:01;101.50;91.75;56.00
72307;PMS5003;60257;42.638;23.376;2022-11-15T15:37:26;121.25;108.75;56.25
72307;PMS5003;60257;42.638;23.376;2022-11-15T15:39:52;110.25;98.50;55.25
72307;PMS5003;60257;42.638;23.376;2022-11-15T15:42:19;113.00;103.50;62.25
72307;PMS5003;60257;42.638;23.376;2022-11-15T15:44:45;122.25;107.75;59.25
72307;PMS5003;60257;42.638;23.376;2022-11-15T15:47:12;137.50;121.75;72.00
72307;PMS5003;60257;42.638;23.376;2022-11-15T15:49:40;93.75;77.00;51.00
72307;PMS5003;60257;42.638;23.376;2022-11-15T15:52:06;128.00;110.25;66.00
72307;PMS5003;60257;42.638;23.376;2022-11-15T15:54:31;110.00;100.25;60.75
72307;PMS5003;60257;42.638;23.376;2022-11-15T15:56:57;111.75;107.00;64.25
72307;PMS5003;60257;42.638;23.376;2022-11-15T15:59:22;105.25;92.75;43.75
72307;PMS5003;60257;42.638;23.376;2022-11-15T16:01:47;110.75;101.25;59.25
72307;PMS5003;60257;42.638;23.376;2022-11-15T16:04:13;100.25;93.00;46.75
72307;PMS5003;60257;42.638;23.376;2022-11-15T16:06:39;98.00;91.00;51.25
72307;PMS5003;60257;42.638;23.376;2022-11-15T16:09:12;97.75;84.00;50.50
72307;PMS5003;60257;42.638;23.376;2022-11-15T16:11:43;108.25;96.25;54.00
72307;PMS5003;60257;42.638;23.376;2022-11-15T16:14:10;109.75;99.50;53.75
72307;PMS5003;60257;42.638;23.376;2022-11-15T16:16:36;101.00;92.25;53.75
72307;PMS5003;60257;42.638;23.376;2022-11-15T16:19:02;101.50;88.50;55.00